Time;durP1;ratioP1;P1;durP2;ratioP2;P2;SDS_P1;SDS_P2;PMS_P1;PMS_P2;Temp;Humidity;BMP_temperature;BMP_pressure;BME280_temperature;BME280_humidity;BME280_pressure;Samples;Min_cycle;Max_cycle;Signal;HPM_P1;HPM_P2
2022/03/17 08:14:16;;;;;;;33.75;25.58;;;12.20;91.80;;;;;;10454071;28;20606;-79
2022/03/17 08:19:38;;;;;;;43.00;25.55;;;12.50;91.50;;;;;;10415032;28;20205;-82
2022/03/17 08:25:00;;;;;;;40.22;29.08;;;13.10;80.60;;;;;;10429994;28;20196;-81
2022/03/17 08:30:22;;;;;;;38.65;27.27;;;13.20;76.80;;;;;;10427821;28;20232;-82
2022/03/17 08:35:45;;;;;;;42.22;28.42;;;13.70;68.80;;;;;;10385478;28;20251;-83
2022/03/17 08:41:07;;;;;;;41.80;27.50;;;13.90;64.60;;;;;;10414054;28;20506;-80
2022/03/17 08:52:09;;;;;;;38.03;25.55;;;14.50;57.90;;;;;;10424623;28;20220;-80
2022/03/17 08:57:31;;;;;;;39.20;27.10;;;15.70;50.40;;;;;;10409441;28;20517;-78
2022/03/17 09:02:55;;;;;;;34.90;26.83;;;16.10;45.20;;;;;;10407971;28;20201;-80
2022/03/17 09:08:17;;;;;;;38.63;27.80;;;16.10;43.90;;;;;;10380992;28;20280;-79
2022/03/17 09:13:39;;;;;;;36.88;27.73;;;16.30;43.80;;;;;;10421911;28;20252;-81
2022/03/17 09:19:02;;;;;;;48.70;30.77;;;16.30;40.80;;;;;;10372194;28;20193;-79
2022/03/17 09:24:26;;;;;;;49.35;30.92;;;15.60;43.60;;;;;;10411216;28;20256;-82
2022/03/17 09:29:48;;;;;;;45.58;30.05;;;14.90;47.30;;;;;;10368268;28;20227;-81
2022/03/17 09:35:11;;;;;;;45.15;31.42;;;14.90;48.70;;;;;;10368306;28;20243;-81
2022/03/17 09:40:38;;;;;;;40.58;27.98;;;15.10;45.70;;;;;;10395746;28;20201;-84
2022/03/17 09:46:01;;;;;;;35.08;26.58;;;15.70;43.70;;;;;;10392607;28;20215;-81
2022/03/17 09:51:26;;;;;;;44.95;29.33;;;16.40;40.70;;;;;;10366379;28;20270;-79
2022/03/17 09:56:49;;;;;;;44.83;29.48;;;17.60;36.70;;;;;;10381135;28;20201;-78
2022/03/17 10:02:16;;;;;;;40.10;27.02;;;17.40;34.80;;;;;;10380532;28;20235;-81
2022/03/17 10:07:39;;;;;;;43.00;28.52;;;17.00;35.20;;;;;;10368397;28;20201;-81
2022/03/17 10:13:28;;;;;;;44.65;30.90;;;17.10;35.30;;;;;;10392725;28;20252;-83
2022/03/17 10:19:01;;;;;;;43.85;28.98;;;16.80;35.60;;;;;;10393699;28;20205;-80
2022/03/17 10:24:23;;;;;;;50.28;32.22;;;16.90;36.10;;;;;;10393915;28;20247;-81
2022/03/17 10:30:01;;;;;;;44.10;30.17;;;16.40;36.80;;;;;;10363796;28;20540;-77
2022/03/17 10:35:36;;;;;;;41.70;28.42;;;15.70;39.20;;;;;;10388293;28;20242;-81
2022/03/17 10:41:11;;;;;;;39.53;28.10;;;15.50;41.40;;;;;;10382466;28;20291;-78
2022/03/17 10:46:33;;;;;;;45.10;28.52;;;15.40;42.50;;;;;;10370322;28;20265;-78
2022/03/17 10:51:57;;;;;;;42.47;27.90;;;15.40;42.50;;;;;;10401595;28;20227;-78
2022/03/17 10:57:23;;;;;;;41.50;28.30;;;14.90;44.50;;;;;;10429544;28;20585;-84
2022/03/17 11:02:46;;;;;;;44.78;27.63;;;14.80;45.10;;;;;;10401057;28;20230;-79
2022/03/17 11:08:10;;;;;;;47.17;27.88;;;14.50;46.80;;;;;;10397266;28;20242;-79
2022/03/17 11:13:32;;;;;;;36.53;27.35;;;14.70;47.00;;;;;;10400999;28;20238;-80
2022/03/17 11:18:55;;;;;;;41.67;28.80;;;14.50;46.40;;;;;;10392172;28;20231;-80
2022/03/17 11:24:21;;;;;;;41.30;26.63;;;14.30;51.20;;;;;;10411795;28;20413;-80
2022/03/17 11:29:48;;;;;;;53.33;30.45;;;14.40;50.50;;;;;;10408374;28;20269;-85
2022/03/17 11:35:17;;;;;;;41.58;29.88;;;14.60;50.70;;;;;;10373554;28;20218;-83
2022/03/17 11:41:05;;;;;;;41.92;27.73;;;14.50;50.10;;;;;;10397576;28;20250;-81
2022/03/17 11:46:44;;;;;;;41.88;26.67;;;14.60;50.80;;;;;;10401337;28;20249;-79
2022/03/17 11:52:09;;;;;;;45.30;29.92;;;14.50;48.10;;;;;;10384726;28;20432;-84
2022/03/17 11:57:31;;;;;;;37.67;25.45;;;14.40;46.50;;;;;;10398905;28;20211;-84
2022/03/17 12:03:05;;;;;;;39.42;24.75;;;14.40;46.30;;;;;;10393099;28;20205;-87
2022/03/17 12:08:37;;;;;;;35.63;24.17;;;14.10;46.60;;;;;;10374245;28;20221;-81
2022/03/17 12:14:14;;;;;;;42.85;25.60;;;14.10;46.50;;;;;;10397342;28;20240;-83
2022/03/17 12:19:43;;;;;;;43.92;26.35;;;13.70;48.00;;;;;;10394930;28;20399;-89
2022/03/17 12:25:12;;;;;;;40.10;26.35;;;13.60;49.10;;;;;;10419597;28;20198;-86
2022/03/17 12:30:35;;;;;;;42.85;24.10;;;13.10;50.10;;;;;;10396506;28;20521;-85
2022/03/17 12:36:05;;;;;;;29.80;21.58;;;13.10;52.40;;;;;;10404628;28;20199;-86
2022/03/17 12:41:28;;;;;;;29.45;18.40;;;13.10;48.10;;;;;;10403754;28;20204;-84
2022/03/17 12:46:51;;;;;;;33.60;21.73;;;13.00;45.00;;;;;;10401468;28;20204;-86
2022/03/17 12:52:23;;;;;;;30.05;19.00;;;12.90;43.20;;;;;;10380857;28;20228;-88
2022/03/17 12:57:47;;;;;;;33.05;20.10;;;12.80;42.90;;;;;;10376792;28;20464;-91
2022/03/17 13:03:16;;;;;;;39.63;23.80;;;12.70;42.60;;;;;;10410961;28;20272;-86
2022/03/17 13:08:39;;;;;;;34.00;20.70;;;12.50;44.00;;;;;;10388252;28;20201;-92
2022/03/17 13:14:21;;;;;;;32.42;19.90;;;12.60;44.30;;;;;;10409418;28;20251;-92
2022/03/17 13:19:49;;;;;;;40.17;25.87;;;12.40;44.20;;;;;;10427485;28;20196;-90
2022/03/17 13:25:14;;;;;;;32.50;20.30;;;12.20;44.90;;;;;;10424389;28;20389;-88
2022/03/17 13:30:43;;;;;;;30.02;21.38;;;12.00;47.10;;;;;;10391849;28;20224;-91
2022/03/17 13:36:06;;;;;;;32.10;21.03;;;12.10;47.50;;;;;;10406727;28;20192;-88
2022/03/17 13:41:28;;;;;;;39.17;25.47;;;11.80;47.90;;;;;;10420591;28;20211;-94
2022/03/17 13:46:50;;;;;;;54.53;34.00;;;11.70;48.60;;;;;;10411824;28;20215;-89
2022/03/17 13:52:12;;;;;;;43.43;25.70;;;11.70;49.80;;;;;;10389029;28;20218;-83
2022/03/17 13:57:34;;;;;;;32.87;21.80;;;11.60;48.60;;;;;;10410936;28;20187;-82
2022/03/17 14:03:30;;;;;;;31.80;21.47;;;11.50;49.50;;;;;;10406607;28;20208;-84
2022/03/17 14:08:55;;;;;;;32.40;22.13;;;11.40;50.40;;;;;;10466481;28;20211;-85
2022/03/17 14:14:17;;;;;;;44.60;24.20;;;11.10;50.60;;;;;;10446459;28;20231;-83
2022/03/17 14:19:40;;;;;;;31.93;19.73;;;10.90;51.20;;;;;;10476225;28;20214;-83
2022/03/17 14:25:04;;;;;;;32.23;19.77;;;10.90;51.20;;;;;;10455208;28;20290;-83
2022/03/17 14:30:26;;;;;;;36.53;21.23;;;10.90;49.20;;;;;;10458751;28;20458;-83
2022/03/17 14:35:52;;;;;;;35.27;19.87;;;10.90;50.50;;;;;;10428403;28;20202;-84
2022/03/17 14:41:16;;;;;;;32.77;21.57;;;10.90;51.80;;;;;;10427400;28;20223;-84
2022/03/17 14:46:38;;;;;;;36.57;22.20;;;10.70;52.00;;;;;;10396121;28;20549;-83
2022/03/17 14:52:01;;;;;;;33.80;23.50;;;10.70;53.80;;;;;;10399102;28;20250;-83
2022/03/17 14:57:25;;;;;;;38.13;23.80;;;10.50;54.60;;;;;;10416349;28;20192;-88
2022/03/17 15:02:47;;;;;;;35.53;24.90;;;10.40;57.20;;;;;;10393475;28;20427;-85
2022/03/17 15:08:09;;;;;;;42.53;24.27;;;10.30;58.00;;;;;;10393251;28;20213;-79
2022/03/17 15:13:31;;;;;;;34.83;22.03;;;10.30;59.90;;;;;;10416027;28;20244;-83
2022/03/17 15:18:54;;;;;;;32.97;22.60;;;10.20;61.80;;;;;;10419643;28;20195;-81
2022/03/17 15:24:16;;;;;;;34.53;24.20;;;10.20;63.00;;;;;;10400313;28;20202;-80
2022/03/17 15:35:19;;;;;;;57.33;35.90;;;10.00;68.50;;;;;;10405823;28;20213;-80
2022/03/17 15:40:42;;;;;;;51.97;29.27;;;9.90;71.70;;;;;;10391530;28;20211;-79
2022/03/17 15:46:04;;;;;;;49.90;26.80;;;9.90;74.00;;;;;;10396744;28;20274;-80
2022/03/17 15:51:26;;;;;;;39.07;23.53;;;9.70;76.60;;;;;;10416163;28;20466;-80
2022/03/17 15:56:48;;;;;;;44.83;21.73;;;9.60;79.40;;;;;;10411585;28;20250;-81
2022/03/17 16:02:11;;;;;;;33.33;21.87;;;9.60;81.50;;;;;;10403567;28;20266;-79
2022/03/17 16:07:33;;;;;;;34.23;21.30;;;9.50;83.60;;;;;;10380116;28;20413;-79
2022/03/17 16:18:36;;;;;;;29.53;20.80;;;9.40;85.50;;;;;;10362280;28;20442;-79
2022/03/17 16:23:59;;;;;;;44.60;24.83;;;9.30;86.50;;;;;;10394501;28;20383;-79
2022/03/17 16:29:21;;;;;;;51.33;25.43;;;9.20;88.20;;;;;;10394180;28;20235;-80
2022/03/17 16:34:43;;;;;;;39.03;23.50;;;9.00;88.30;;;;;;10399321;28;20419;-79
2022/03/17 16:40:05;;;;;;;41.50;22.27;;;9.10;89.70;;;;;;10403458;28;20198;-80
2022/03/17 16:45:31;;;;;;;32.53;20.70;;;9.00;90.30;;;;;;10388345;28;20206;-80
2022/03/17 16:50:57;;;;;;;30.33;20.40;;;8.90;90.60;;;;;;10402051;28;20267;-79
2022/03/17 16:56:19;;;;;;;31.30;21.20;;;8.90;90.80;;;;;;10388093;28;20494;-79
2022/03/17 17:01:43;;;;;;;32.90;21.60;;;8.70;91.00;;;;;;10361805;28;20246;-78
2022/03/17 17:07:06;;;;;;;39.27;23.33;;;8.60;91.60;;;;;;10369339;28;20311;-78
2022/03/17 17:12:33;;;;;;;44.27;25.80;;;8.50;92.50;;;;;;10401015;28;20309;-79
2022/03/17 17:17:55;;;;;;;53.77;29.47;;;8.50;93.00;;;;;;10400977;28;20225;-78
2022/03/17 17:34:39;;;;;;;57.63;30.97;;;8.20;95.80;;;;;;10400251;28;20222;-79
2022/03/17 17:40:01;;;;;;;95.10;38.07;;;8.20;96.30;;;;;;10401300;28;20255;-78
2022/03/17 17:45:23;;;;;;;104.63;42.43;;;8.00;97.10;;;;;;10385508;28;20408;-79
2022/03/17 17:50:47;;;;;;;100.57;39.53;;;7.90;97.70;;;;;;10385704;28;20198;-79
2022/03/17 17:56:09;;;;;;;78.83;37.43;;;7.90;97.90;;;;;;10385798;28;20226;-79
2022/03/17 18:01:31;;;;;;;45.17;27.60;;;7.90;97.70;;;;;;10439575;28;20195;-79
2022/03/17 18:06:56;;;;;;;41.93;26.23;;;7.90;97.80;;;;;;10402943;28;20410;-78
2022/03/17 18:12:18;;;;;;;39.53;23.77;;;7.90;97.80;;;;;;10358194;28;20569;-78
2022/03/17 18:17:40;;;;;;;41.23;24.30;;;7.80;98.30;;;;;;10360857;28;20197;-79
2022/03/17 18:23:04;;;;;;;41.77;23.03;;;7.80;98.30;;;;;;10399563;28;20201;-78
2022/03/17 18:28:27;;;;;;;38.43;22.90;;;7.80;98.70;;;;;;10397482;28;20244;-78
2022/03/17 18:33:50;;;;;;;35.10;22.10;;;7.80;98.80;;;;;;10398224;28;20452;-79
2022/03/17 18:39:12;;;;;;;43.03;24.63;;;7.70;99.20;;;;;;10399187;28;20199;-78
2022/03/17 18:44:33;;;;;;;40.00;25.30;;;7.60;99.50;;;;;;10398885;28;20231;-79
2022/03/17 18:49:55;;;;;;;47.57;28.37;;;7.60;99.80;;;;;;10397265;28;20217;-78
2022/03/17 18:55:25;;;;;;;45.80;27.70;;;7.50;99.90;;;;;;10396232;28;20251;-78
2022/03/17 19:00:47;;;;;;;48.03;27.90;;;7.50;99.90;;;;;;10431437;28;20265;-78
2022/03/17 19:06:09;;;;;;;40.67;25.20;;;7.40;99.90;;;;;;10398123;28;20520;-78
2022/03/17 19:11:31;;;;;;;38.77;24.10;;;7.40;99.90;;;;;;10356671;28;20243;-79
2022/03/17 19:16:55;;;;;;;41.20;27.00;;;7.40;99.90;;;;;;10356850;28;20193;-78
2022/03/17 19:22:25;;;;;;;43.47;24.93;;;7.40;99.90;;;;;;10374578;28;20398;-79
2022/03/17 19:27:47;;;;;;;63.67;36.13;;;7.30;99.90;;;;;;10370019;28;20507;-79
2022/03/17 19:33:09;;;;;;;83.77;44.17;;;7.30;99.90;;;;;;10395938;28;20292;-78
2022/03/17 19:38:31;;;;;;;66.53;35.30;;;7.30;99.90;;;;;;10396574;28;20223;-79
2022/03/17 19:43:54;;;;;;;71.67;35.93;;;7.30;99.90;;;;;;10395998;28;20208;-78
2022/03/17 19:50:53;;;;;;;47.73;26.13;;;7.20;99.90;;;;;;10395514;28;20267;-78
2022/03/17 19:54:58;;;;;;;46.17;26.23;;;7.10;99.90;;;;;;10396023;28;20221;-78
2022/03/17 20:00:20;;;;;;;45.90;27.23;;;7.10;99.90;;;;;;10425867;28;20387;-78
2022/03/17 20:05:43;;;;;;;45.63;28.03;;;7.10;99.90;;;;;;10416897;28;20244;-78
2022/03/17 20:16:47;;;;;;;50.00;30.03;;;7.00;99.90;;;;;;10394541;28;20524;-78
2022/03/17 20:22:12;;;;;;;58.90;33.23;;;7.00;99.90;;;;;;10395498;28;20433;-78
2022/03/17 20:27:34;;;;;;;58.87;31.37;;;6.90;99.90;;;;;;10395340;28;20215;-79
2022/03/17 20:32:56;;;;;;;53.47;29.83;;;7.00;99.90;;;;;;10394540;28;20226;-78
2022/03/17 20:38:18;;;;;;;44.10;26.70;;;6.90;99.90;;;;;;10394148;28;20205;-78
2022/03/17 20:43:41;;;;;;;35.03;24.57;;;6.80;99.90;;;;;;10394336;28;20196;-78
2022/03/17 20:49:03;;;;;;;42.17;25.77;;;6.70;99.90;;;;;;10380537;28;20434;-78
2022/03/17 20:54:26;;;;;;;36.73;24.67;;;6.70;99.90;;;;;;10393917;28;20225;-79
2022/03/17 20:59:48;;;;;;;41.97;27.83;;;6.70;99.90;;;;;;10406377;28;20191;-79
2022/03/17 21:05:12;;;;;;;42.43;25.80;;;6.70;99.90;;;;;;10421158;28;20264;-78
2022/03/17 21:10:35;;;;;;;40.13;25.40;;;6.60;99.90;;;;;;10361443;28;20260;-78
2022/03/17 21:15:57;;;;;;;36.63;24.17;;;6.60;99.90;;;;;;10354086;28;20228;-79
2022/03/17 21:21:19;;;;;;;42.20;26.23;;;6.60;99.90;;;;;;10360238;28;20219;-76
2022/03/17 21:26:41;;;;;;;44.07;28.00;;;6.60;99.90;;;;;;10363922;28;20207;-77
2022/03/17 21:32:04;;;;;;;39.00;24.53;;;6.50;99.90;;;;;;10400836;28;20514;-78
2022/03/17 21:37:26;;;;;;;37.97;25.77;;;6.50;99.90;;;;;;10386178;28;20197;-77
2022/03/17 21:42:49;;;;;;;49.00;29.77;;;6.40;99.90;;;;;;10400192;28;20254;-77
2022/03/17 21:48:11;;;;;;;41.90;27.60;;;6.40;99.90;;;;;;10400880;28;20197;-77
2022/03/17 21:53:33;;;;;;;40.00;24.87;;;6.40;99.90;;;;;;10400909;28;20231;-78
2022/03/17 21:58:55;;;;;;;39.40;26.30;;;6.40;99.90;;;;;;10419486;28;20361;-77
2022/03/17 22:04:19;;;;;;;42.33;25.87;;;6.40;99.90;;;;;;10418970;28;20199;-79
2022/03/17 22:09:45;;;;;;;48.80;30.60;;;6.30;99.90;;;;;;10377256;28;20236;-78
2022/03/17 22:15:07;;;;;;;44.00;27.87;;;6.30;99.90;;;;;;10358118;28;20232;-77
2022/03/17 22:20:29;;;;;;;42.20;27.03;;;6.20;99.90;;;;;;10374251;28;20433;-78
2022/03/17 22:25:52;;;;;;;45.37;27.27;;;6.20;99.90;;;;;;10357934;28;20200;-78
2022/03/17 22:31:13;;;;;;;44.60;26.97;;;6.20;99.90;;;;;;10385043;28;20252;-78
2022/03/17 22:36:36;;;;;;;42.83;26.13;;;6.20;99.90;;;;;;10358757;28;20428;-78
2022/03/17 22:41:58;;;;;;;47.67;27.70;;;6.20;99.90;;;;;;10376712;28;20208;-79
2022/03/17 22:47:20;;;;;;;44.10;27.50;;;6.10;99.90;;;;;;10370710;28;20545;-77
2022/03/17 22:52:43;;;;;;;40.87;25.67;;;6.10;99.90;;;;;;10389563;28;20232;-76
2022/03/17 22:58:06;;;;;;;45.03;26.77;;;6.20;99.90;;;;;;10385555;28;20226;-76
2022/03/17 23:03:28;;;;;;;37.43;24.73;;;6.10;99.90;;;;;;10343015;28;20495;-76
2022/03/17 23:08:52;;;;;;;39.00;23.60;;;6.20;99.90;;;;;;10397804;28;20202;-79
2022/03/17 23:14:16;;;;;;;54.80;30.10;;;6.20;99.90;;;;;;10396479;28;20302;-79
2022/03/17 23:19:38;;;;;;;65.40;35.43;;;6.10;99.90;;;;;;10396296;28;20388;-77
2022/03/17 23:25:00;;;;;;;47.10;28.33;;;6.10;99.90;;;;;;10396768;28;20504;-76
2022/03/17 23:30:22;;;;;;;39.43;24.83;;;6.10;99.90;;;;;;10427147;28;20210;-78
2022/03/17 23:35:45;;;;;;;42.50;24.10;;;6.10;99.90;;;;;;10412706;28;20243;-76
2022/03/17 23:41:11;;;;;;;39.77;23.60;;;6.00;99.90;;;;;;10395706;28;20258;-76
2022/03/17 23:46:48;;;;;;;36.93;24.70;;;6.00;99.90;;;;;;10395265;28;20250;-77
2022/03/17 23:52:30;;;;;;;48.23;26.20;;;6.00;99.90;;;;;;10381594;28;20235;-77
2022/03/17 23:57:52;;;;;;;41.57;25.43;;;6.00;99.90;;;;;;10405359;28;20219;-76
